Taxila Weather



Taxila's Current Weather

Temprature 12.58o smoke

smoke

Rain: 0 %

Min Temprature10o
Max Temprature15o
Humidity71
Wind Speed2.1 m/h
Sun Rise06:24:21
Sun Set17:20:30
Current Time: 28-Oct-2020 07:16:53
Lat/Lon: 33.75, 72.81




Taxila's Geo Location



Taxila's Weather Forecast

Time Overall Temp Min Temp Max Temp Humidity Wind Speed Rain
28-Oct-2020 (Wed)
08:00:00 clear sky 16.200 16.200 19.990 48 1.21 m/h 0 %
11:00:00 clear sky 23.230 23.230 26.160 28 1.78 m/h 0 %
14:00:00 clear sky 27.480 27.480 28.500 18 2.06 m/h 0 %
17:00:00 few clouds 23.220 23.220 23.310 21 1.18 m/h 0 %
20:00:00 clear sky 19.380 19.380 19.380 26 2.43 m/h 0 %
23:00:00 clear sky 18.720 18.720 18.720 26 2.65 m/h 0 %
29-Oct-2020 (Thu)
02:00:00 clear sky 17.130 17.130 17.130 28 2.02 m/h 0 %
05:00:00 clear sky 15.340 15.340 15.340 32 0.76 m/h 0 %
08:00:00 clear sky 19.450 19.450 19.450 25 1.56 m/h 0 %
11:00:00 few clouds 26.090 26.090 26.090 17 2.4 m/h 0 %
14:00:00 few clouds 28.270 28.270 28.270 15 2.91 m/h 0 %
17:00:00 few clouds 23.370 23.370 23.370 21 2.16 m/h 0 %
20:00:00 clear sky 19.140 19.140 19.140 26 1.93 m/h 0 %
23:00:00 clear sky 17.630 17.630 17.630 29 2.04 m/h 0 %
30-Oct-2020 (Fri)
02:00:00 clear sky 16.330 16.330 16.330 31 2.19 m/h 0 %
05:00:00 clear sky 14.890 14.890 14.890 34 2.11 m/h 0 %
08:00:00 clear sky 18.120 18.120 18.120 28 2.03 m/h 0 %
11:00:00 clear sky 25.800 25.800 25.800 17 3.37 m/h 0 %
14:00:00 clear sky 28.490 28.490 28.490 14 4.51 m/h 0 %
17:00:00 clear sky 22.740 22.740 22.740 20 2.72 m/h 0 %
20:00:00 clear sky 17.770 17.770 17.770 26 1.46 m/h 0 %
23:00:00 clear sky 16.440 16.440 16.440 29 1.71 m/h 0 %
31-Oct-2020 (Sat)
02:00:00 clear sky 15.250 15.250 15.250 31 2.08 m/h 0 %
05:00:00 clear sky 14.150 14.150 14.150 34 2.29 m/h 0 %
08:00:00 clear sky 17.740 17.740 17.740 27 2.28 m/h 0 %
11:00:00 clear sky 25.650 25.650 25.650 17 3.77 m/h 0 %
14:00:00 clear sky 28.120 28.120 28.120 14 5.04 m/h 0 %
17:00:00 clear sky 22.710 22.710 22.710 19 2.55 m/h 0 %
20:00:00 clear sky 17.820 17.820 17.820 24 1.39 m/h 0 %
23:00:00 clear sky 16.240 16.240 16.240 27 1.54 m/h 0 %
01-Nov-2020 (Sun)
02:00:00 clear sky 14.840 14.840 14.840 30 1.62 m/h 0 %
05:00:00 clear sky 14.190 14.190 14.190 32 2.06 m/h 0 %
08:00:00 clear sky 18.090 18.090 18.090 26 1.81 m/h 0 %
11:00:00 clear sky 25.840 25.840 25.840 16 3.21 m/h 0 %
14:00:00 clear sky 28.650 28.650 28.650 13 4.8 m/h 0 %
17:00:00 clear sky 22.970 22.970 22.970 18 2.4 m/h 0 %
20:00:00 clear sky 18.220 18.220 18.220 24 1.27 m/h 0 %
23:00:00 clear sky 16.620 16.620 16.620 26 1.01 m/h 0 %
02-Nov-2020 (Mon)
02:00:00 clear sky 15.320 15.320 15.320 28 1.66 m/h 0 %
05:00:00 clear sky 14.270 14.270 14.270 32 1.58 m/h 0 %

Famous Cities (60)